Time;durP1;ratioP1;P1;durP2;ratioP2;P2;SDS_P1;SDS_P2;PMS_P1;PMS_P2;Temp;Humidity;BMP_temperature;BMP_pressure;BME280_temperature;BME280_humidity;BME280_pressure;Samples;Min_cycle;Max_cycle;Signal;HPM_P1;HPM_P2
2021/06/13 00:01:45;;;;;;;4.75;3.35;;;;;;;14.38;79.80;97971.44;1768030;80;20865;-76
2021/06/13 00:04:11;;;;;;;35.30;5.67;;;;;;;14.34;80.04;97979.96;1799421;79;21362;-76
2021/06/13 00:06:37;;;;;;;5.60;4.03;;;;;;;14.33;79.99;97981.88;1752924;81;21003;-76
2021/06/13 00:09:04;;;;;;;10.68;4.70;;;;;;;14.38;79.99;97976.34;1799594;79;21028;-76
2021/06/13 00:11:30;;;;;;;5.30;3.80;;;;;;;14.26;80.44;97963.77;1768051;81;21151;-76
2021/06/13 00:13:56;;;;;;;4.53;4.12;;;;;;;14.25;79.86;97972.25;1799122;79;20949;-76
2021/06/13 00:16:22;;;;;;;6.67;4.00;;;;;;;14.28;79.88;97966.22;1768759;81;20881;-76
2021/06/13 00:18:48;;;;;;;8.35;4.33;;;;;;;14.36;80.00;97970.39;1799395;79;21481;-76
2021/06/13 00:21:14;;;;;;;5.70;3.70;;;;;;;14.34;79.68;97967.70;1752519;81;20988;-76
2021/06/13 00:23:41;;;;;;;6.53;4.22;;;;;;;14.32;79.60;97976.74;1799164;79;21059;-76
2021/06/13 00:26:08;;;;;;;4.92;3.75;;;;;;;14.38;79.44;97976.34;1767813;81;20945;-76
2021/06/13 00:28:34;;;;;;;7.47;4.60;;;;;;;14.37;79.40;97969.27;1769180;80;21358;-76
2021/06/13 00:31:00;;;;;;;7.97;4.67;;;;;;;14.40;79.39;97971.38;1787571;80;20973;-76
2021/06/13 00:33:26;;;;;;;9.03;4.53;;;;;;;14.38;79.28;97968.16;1764969;80;20921;-76
2021/06/13 00:35:52;;;;;;;5.67;4.60;;;;;;;14.39;79.09;97968.41;1787791;80;21001;-76
2021/06/13 00:38:19;;;;;;;4.53;4.10;;;;;;;14.41;79.03;97966.73;1788336;80;21021;-76
2021/06/13 00:40:44;;;;;;;6.62;4.80;;;;;;;14.42;78.90;97968.90;1787735;80;20929;-76
2021/06/13 00:43:10;;;;;;;7.72;4.50;;;;;;;14.39;78.69;97973.86;1787861;80;20942;-76
2021/06/13 00:45:36;;;;;;;8.10;4.12;;;;;;;14.38;78.64;97977.70;1755126;80;20992;-76
2021/06/13 00:48:03;;;;;;;6.42;5.00;;;;;;;14.36;78.75;97978.56;1787898;79;22004;-76
2021/06/13 00:50:34;;;;;;;8.10;4.85;;;;;;;14.38;78.58;97972.25;1788080;79;21009;-76
2021/06/13 00:53:04;;;;;;;6.78;4.95;;;;;;;14.39;78.39;97977.14;1784003;80;21127;-77
2021/06/13 00:55:30;;;;;;;5.87;4.53;;;;;;;14.35;78.39;97978.84;1747138;81;21024;-77
2021/06/13 00:57:56;;;;;;;7.83;4.40;;;;;;;14.34;78.24;97980.77;1788304;80;21040;-77
2021/06/13 01:00:22;;;;;;;6.42;4.40;;;;;;;14.36;78.18;97978.56;1787744;79;21303;-77
2021/06/13 01:02:48;;;;;;;6.53;4.37;;;;;;;14.37;78.10;97982.09;1764958;80;21496;-77
2021/06/13 01:05:14;;;;;;;5.25;4.75;;;;;;;14.34;78.26;97975.88;1787777;80;20854;-77
2021/06/13 01:07:48;;;;;;;6.12;5.15;;;;;;;14.34;78.21;97975.88;1747717;81;21535;-77
2021/06/13 01:10:39;;;;;;;5.90;4.97;;;;;;;14.35;78.17;97970.67;1787737;80;20918;-77
2021/06/13 01:13:50;;;;;;;7.20;5.65;;;;;;;14.28;77.83;97968.94;1787659;79;21185;-77
2021/06/13 01:16:27;;;;;;;10.80;6.50;;;;;;;14.21;77.95;97971.27;1787382;80;20930;-77
2021/06/13 01:19:13;;;;;;;10.25;6.08;;;;;;;14.20;77.64;97969.66;1787946;80;20910;-77
2021/06/13 01:21:55;;;;;;;6.92;5.83;;;;;;;14.21;77.56;97961.16;1787518;80;21017;-76
2021/06/13 01:24:31;;;;;;;6.28;4.95;;;;;;;14.20;77.50;97962.84;1787663;80;21052;-77
2021/06/13 01:27:21;;;;;;;6.50;4.97;;;;;;;14.13;77.85;97968.69;1787942;79;21169;-77
2021/06/13 01:29:48;;;;;;;6.03;4.45;;;;;;;14.08;77.44;97969.59;1794524;79;20906;-78
2021/06/13 01:32:22;;;;;;;5.42;4.45;;;;;;;14.06;77.40;97964.20;1778302;80;21024;-78
2021/06/13 01:34:55;;;;;;;6.97;3.90;;;;;;;14.00;77.37;97962.12;1799160;79;21015;-78
2021/06/13 01:37:24;;;;;;;5.33;4.58;;;;;;;13.88;77.06;97965.91;1768583;80;21339;-78
2021/06/13 01:39:53;;;;;;;6.40;4.62;;;;;;;13.78;77.11;97968.28;1772366;79;21749;-78
2021/06/13 01:42:19;;;;;;;7.20;5.10;;;;;;;13.65;77.02;97974.52;1768076;81;20981;-78
2021/06/13 01:44:46;;;;;;;9.60;5.17;;;;;;;13.48;77.82;97968.83;1771998;79;20921;-78
2021/06/13 01:47:12;;;;;;;4.28;3.77;;;;;;;13.36;77.94;97972.59;1768239;80;20969;-78
2021/06/13 01:49:39;;;;;;;6.40;4.05;;;;;;;13.20;80.29;97980.20;1798465;79;21038;-78
2021/06/13 01:52:06;;;;;;;4.55;3.60;;;;;;;13.11;80.05;97977.88;1752884;81;21315;-76
2021/06/13 01:54:32;;;;;;;4.58;3.72;;;;;;;12.98;81.18;97984.87;1772040;79;21032;-76
2021/06/13 01:56:58;;;;;;;5.75;3.50;;;;;;;12.94;81.43;97995.55;1768144;81;20924;-76
2021/06/13 01:59:24;;;;;;;6.50;4.05;;;;;;;12.88;81.68;97991.27;1799002;79;20945;-76
2021/06/13 02:01:51;;;;;;;5.28;3.80;;;;;;;12.94;80.67;98003.70;1768019;81;20881;-76
2021/06/13 02:04:17;;;;;;;5.00;2.77;;;;;;;12.89;81.61;98001.59;1799394;79;21161;-76
2021/06/13 02:06:47;;;;;;;7.40;2.90;;;;;;;12.91;80.57;97996.14;1767741;81;20920;-76
2021/06/13 02:09:14;;;;;;;3.25;2.47;;;;;;;12.86;81.02;98000.29;1799075;79;20921;-77
2021/06/13 02:11:43;;;;;;;8.03;3.35;;;;;;;12.92;80.40;98010.00;1778113;80;20981;-77
2021/06/13 02:14:10;;;;;;;4.28;3.00;;;;;;;12.89;81.04;98007.04;1798951;79;20956;-77
2021/06/13 02:16:39;;;;;;;5.85;3.62;;;;;;;12.87;81.21;98018.77;1768074;80;21056;-77
2021/06/13 02:19:05;;;;;;;8.68;4.03;;;;;;;12.80;81.88;98016.97;1798342;79;21021;-78
2021/06/13 02:21:31;;;;;;;5.72;4.03;;;;;;;12.82;80.85;98016.11;1778245;80;20981;-78
2021/06/13 02:23:57;;;;;;;5.20;3.55;;;;;;;12.84;81.51;98011.21;1799241;79;20872;-78
2021/06/13 02:26:23;;;;;;;6.35;4.37;;;;;;;12.83;81.43;98015.84;1767803;80;21322;-78
2021/06/13 02:28:53;;;;;;;8.05;3.83;;;;;;;12.79;82.41;98022.15;1797975;79;21066;-78
2021/06/13 02:31:22;;;;;;;4.55;3.40;;;;;;;12.80;81.28;98016.97;1764912;81;21016;-77
2021/06/13 02:33:48;;;;;;;10.75;4.08;;;;;;;12.82;80.86;98019.67;1779447;80;21013;-77
2021/06/13 02:36:14;;;;;;;4.17;2.83;;;;;;;12.77;81.51;98025.17;1739290;81;21449;-77
2021/06/13 02:38:40;;;;;;;7.53;3.00;;;;;;;12.70;80.72;98037.76;1779511;80;21382;-77
2021/06/13 02:41:06;;;;;;;3.87;2.40;;;;;;;12.69;80.43;98039.41;1765159;81;21813;-77
2021/06/13 02:43:32;;;;;;;4.55;2.75;;;;;;;12.65;80.16;98043.28;1779423;80;20946;-77
2021/06/13 02:45:58;;;;;;;4.40;2.30;;;;;;;12.60;79.94;98035.19;1765142;81;20887;-77
2021/06/13 02:48:24;;;;;;;6.80;2.60;;;;;;;12.61;79.67;98044.14;1779378;80;20997;-77
2021/06/13 02:50:53;;;;;;;3.08;2.20;;;;;;;12.62;79.57;98039.77;1765284;81;21634;-77
2021/06/13 02:53:44;;;;;;;6.58;1.95;;;;;;;12.66;79.61;98050.33;1779568;80;21156;-76
2021/06/13 02:56:43;;;;;;;3.95;1.85;;;;;;;12.67;79.61;98036.19;1765344;81;21417;-77
2021/06/13 02:59:24;;;;;;;5.92;2.25;;;;;;;12.71;79.45;98044.00;1779540;80;21013;-77
2021/06/13 03:01:51;;;;;;;6.08;2.83;;;;;;;12.69;79.48;98045.66;1765603;81;20988;-76
2021/06/13 03:04:17;;;;;;;3.10;2.45;;;;;;;12.70;79.33;98049.99;1755360;80;20946;-76
2021/06/13 03:06:46;;;;;;;3.12;2.52;;;;;;;12.71;79.08;98052.16;1765132;81;21141;-76
2021/06/13 03:09:12;;;;;;;3.30;2.12;;;;;;;12.69;79.03;98061.97;1779550;80;28002;-77
2021/06/13 03:11:38;;;;;;;3.30;2.17;;;;;;;12.66;78.69;98062.56;1765280;81;21015;-77
2021/06/13 03:14:04;;;;;;;10.32;2.40;;;;;;;12.67;78.58;98064.73;1755272;80;20858;-76
2021/06/13 03:16:30;;;;;;;3.05;2.22;;;;;;;12.61;78.68;98069.41;1739581;81;20944;-76
2021/06/13 03:18:56;;;;;;;4.50;2.17;;;;;;;12.58;78.93;98076.80;1779471;80;20890;-76
2021/06/13 03:21:22;;;;;;;6.25;2.37;;;;;;;12.58;79.16;98072.73;1765243;81;21568;-76
2021/06/13 03:23:48;;;;;;;3.33;2.25;;;;;;;12.65;79.21;98076.45;1781210;80;20977;-76
2021/06/13 03:26:14;;;;;;;2.98;2.00;;;;;;;12.70;79.66;98077.73;1765216;81;20837;-76
2021/06/13 03:28:40;;;;;;;5.90;1.70;;;;;;;12.76;79.36;98088.81;1779606;80;21025;-76
2021/06/13 03:31:06;;;;;;;2.83;2.05;;;;;;;12.83;79.28;98086.55;1774827;80;21041;-76
2021/06/13 03:33:34;;;;;;;4.28;2.02;;;;;;;12.86;79.30;98086.50;1765427;80;21299;-76
2021/06/13 03:36:08;;;;;;;4.97;2.50;;;;;;;12.92;79.13;98086.70;1796708;79;20950;-76
2021/06/13 03:38:35;;;;;;;2.85;1.98;;;;;;;13.01;79.05;98086.30;1765498;80;21353;-76
2021/06/13 03:41:00;;;;;;;2.67;1.80;;;;;;;13.14;78.77;98086.91;1796721;79;20962;-76
2021/06/13 03:43:27;;;;;;;4.97;2.20;;;;;;;13.19;78.89;98098.28;1765305;80;21002;-76
2021/06/13 03:45:53;;;;;;;5.40;2.00;;;;;;;13.24;78.89;98094.14;1796642;79;21005;-76
2021/06/13 03:48:19;;;;;;;4.97;2.50;;;;;;;13.31;78.63;98090.50;1725235;81;21007;-76
2021/06/13 03:50:46;;;;;;;4.87;2.90;;;;;;;13.31;78.53;98097.30;1796724;79;21365;-76
2021/06/13 03:53:12;;;;;;;4.42;2.52;;;;;;;13.42;78.47;98100.70;1750164;81;20917;-76
2021/06/13 03:55:39;;;;;;;6.28;2.92;;;;;;;13.41;78.04;98097.14;1796821;79;21138;-76
2021/06/13 03:58:05;;;;;;;8.15;3.52;;;;;;;13.36;78.16;98109.48;1765369;80;21471;-76
2021/06/13 04:00:33;;;;;;;4.45;3.12;;;;;;;13.37;78.32;98112.45;1796775;79;21044;-76
2021/06/13 04:02:59;;;;;;;4.12;2.80;;;;;;;13.43;78.43;98118.64;1775771;80;21004;-76
2021/06/13 04:05:25;;;;;;;4.80;3.40;;;;;;;13.35;78.94;98125.56;1796837;79;21350;-76
2021/06/13 04:07:51;;;;;;;5.12;3.37;;;;;;;13.44;78.97;98120.26;1750353;81;21294;-76
2021/06/13 04:10:17;;;;;;;5.00;3.02;;;;;;;13.48;78.73;98123.99;1781601;79;21027;-76
2021/06/13 04:12:49;;;;;;;4.22;2.85;;;;;;;13.54;79.05;98117.38;1765713;80;21028;-76
2021/06/13 04:15:17;;;;;;;7.25;3.77;;;;;;;13.62;78.54;98119.98;1807941;79;21005;-77
2021/06/13 04:17:43;;;;;;;4.75;3.50;;;;;;;13.57;78.38;98126.84;1775459;80;21028;-77
2021/06/13 04:20:11;;;;;;;5.85;3.77;;;;;;;13.62;78.09;98126.78;1759656;79;21764;-77
2021/06/13 04:22:38;;;;;;;7.50;4.67;;;;;;;13.60;78.02;98133.89;1765296;80;21005;-77
2021/06/13 04:25:06;;;;;;;7.05;3.95;;;;;;;13.66;77.60;98138.12;1759825;80;20962;-77
2021/06/13 04:27:32;;;;;;;9.63;3.42;;;;;;;13.66;77.45;98134.59;1749442;81;20969;-77
2021/06/13 04:30:00;;;;;;;5.50;3.62;;;;;;;13.60;77.41;98132.53;1765553;79;20960;-77
2021/06/13 04:32:27;;;;;;;6.05;3.50;;;;;;;13.62;77.40;98128.95;1791690;79;21124;-77
2021/06/13 04:34:52;;;;;;;7.95;5.40;;;;;;;13.69;77.38;98123.94;1787932;80;20933;-77
2021/06/13 04:37:19;;;;;;;7.22;5.60;;;;;;;13.78;77.18;98136.33;1752376;81;21032;-77
2021/06/13 04:39:45;;;;;;;11.08;4.80;;;;;;;13.82;77.16;98133.25;1765727;81;20949;-77
2021/06/13 04:42:11;;;;;;;5.22;3.67;;;;;;;13.82;76.81;98142.23;1797295;79;20877;-77
2021/06/13 04:44:37;;;;;;;5.30;3.65;;;;;;;13.86;76.64;98138.38;1765686;80;21870;-77
2021/06/13 04:47:06;;;;;;;7.65;3.58;;;;;;;13.89;76.54;98141.05;1810007;79;20878;-77
2021/06/13 04:49:33;;;;;;;8.45;4.50;;;;;;;13.92;76.35;98139.88;1765679;81;20965;-76
2021/06/13 04:51:59;;;;;;;7.03;3.92;;;;;;;13.99;75.96;98147.67;1797214;79;21005;-76
2021/06/13 04:55:03;;;;;;;5.65;3.47;;;;;;;13.99;75.42;98150.40;1765670;81;20976;-76
2021/06/13 04:57:55;;;;;;;5.58;3.40;;;;;;;13.94;75.43;98146.42;1797176;79;21147;-77
2021/06/13 05:00:22;;;;;;;5.97;3.58;;;;;;;13.98;75.36;98133.25;1765577;80;20965;-76
2021/06/13 05:02:48;;;;;;;6.67;3.27;;;;;;;13.91;75.52;98145.08;1797327;79;21012;-76
2021/06/13 05:05:15;;;;;;;5.75;4.05;;;;;;;13.80;74.92;98144.44;1765991;80;20869;-76
2021/06/13 05:07:42;;;;;;;9.55;3.65;;;;;;;13.87;75.22;98148.71;1783755;79;21402;-76
2021/06/13 05:10:09;;;;;;;6.20;3.87;;;;;;;13.87;74.79;98152.80;1765973;80;21255;-76
2021/06/13 05:12:52;;;;;;;15.53;9.73;;;;;;;13.80;74.50;98156.70;1797107;79;20898;-76
2021/06/13 05:15:20;;;;;;;6.78;3.72;;;;;;;13.66;74.39;98167.27;1783553;79;21036;-76
2021/06/13 05:17:46;;;;;;;7.10;3.40;;;;;;;13.63;74.56;98158.34;1766030;80;21012;-76
2021/06/13 05:20:13;;;;;;;8.40;4.47;;;;;;;13.56;74.20;98151.91;1797101;79;20992;-76
2021/06/13 05:23:00;;;;;;;7.37;4.33;;;;;;;13.62;74.59;98156.17;1765581;81;21450;-76
2021/06/13 05:25:31;;;;;;;4.12;3.37;;;;;;;13.65;74.89;98163.74;1796194;79;21370;-76
2021/06/13 05:27:58;;;;;;;8.48;3.83;;;;;;;13.64;75.16;98165.41;1766048;81;20941;-77
2021/06/13 05:30:25;;;;;;;7.00;4.53;;;;;;;13.68;75.11;98156.92;1797384;79;20898;-77
2021/06/13 05:32:52;;;;;;;6.05;4.10;;;;;;;13.73;74.73;98155.45;1752628;81;21020;-77
2021/06/13 05:35:18;;;;;;;6.95;4.33;;;;;;;13.75;74.45;98160.05;1797401;79;21445;-77
2021/06/13 05:37:44;;;;;;;9.38;4.97;;;;;;;13.78;74.41;98163.56;1752366;81;21019;-77
2021/06/13 05:40:11;;;;;;;9.35;4.47;;;;;;;13.88;74.00;98169.39;1797324;79;20985;-77
2021/06/13 05:42:37;;;;;;;10.55;5.45;;;;;;;13.92;74.03;98167.13;1765665;80;21319;-77
2021/06/13 05:45:05;;;;;;;10.93;4.80;;;;;;;14.00;73.95;98170.53;1797008;79;21036;-77
2021/06/13 05:47:31;;;;;;;8.30;4.30;;;;;;;14.10;73.76;98166.85;1765596;80;22065;-77
2021/06/13 05:49:57;;;;;;;7.87;4.08;;;;;;;14.18;73.63;98162.05;1797037;79;20904;-77
2021/06/13 05:52:23;;;;;;;4.55;3.62;;;;;;;14.20;73.66;98168.59;1765715;80;20918;-77
2021/06/13 05:54:49;;;;;;;6.37;4.10;;;;;;;14.31;73.82;98165.92;1797030;79;20823;-77
2021/06/13 05:57:15;;;;;;;9.25;5.12;;;;;;;14.29;73.55;98163.50;1765798;81;20988;-77
2021/06/13 05:59:41;;;;;;;5.97;4.97;;;;;;;14.23;73.21;98168.78;1797119;79;21948;-77
2021/06/13 06:02:07;;;;;;;8.10;4.45;;;;;;;14.23;73.10;98170.14;1765589;81;20845;-77
2021/06/13 06:04:33;;;;;;;8.38;4.72;;;;;;;14.21;73.03;98177.81;1797110;79;20826;-77
2021/06/13 06:06:58;;;;;;;8.00;5.53;;;;;;;14.22;73.22;98178.63;1766227;81;20936;-77
2021/06/13 06:09:24;;;;;;;5.80;4.55;;;;;;;14.17;73.43;98186.32;1797116;79;20843;-77
2021/06/13 06:11:50;;;;;;;7.70;4.30;;;;;;;14.03;73.76;98182.21;1765809;80;22009;-77
2021/06/13 06:14:16;;;;;;;6.85;4.58;;;;;;;13.91;73.79;98185.94;1797172;79;20908;-77
2021/06/13 06:16:44;;;;;;;6.90;4.87;;;;;;;13.70;74.36;98196.35;1765690;81;20854;-77
2021/06/13 06:19:10;;;;;;;8.83;4.22;;;;;;;13.54;74.65;98209.93;1797561;79;20958;-77
2021/06/13 06:21:37;;;;;;;6.25;4.30;;;;;;;13.54;74.65;98209.93;1752749;81;21494;-77
2021/06/13 06:24:04;;;;;;;8.15;4.22;;;;;;;13.47;75.10;98213.02;1797406;79;21735;-77
2021/06/13 06:26:30;;;;;;;6.50;4.22;;;;;;;13.31;76.66;98217.04;1765717;80;21402;-77
2021/06/13 06:28:56;;;;;;;6.87;3.75;;;;;;;13.24;76.83;98227.47;1797256;79;20910;-77
2021/06/13 06:31:22;;;;;;;9.60;5.10;;;;;;;13.35;76.36;98222.73;1749497;81;21521;-77
2021/06/13 06:33:48;;;;;;;8.63;4.92;;;;;;;13.41;76.67;98231.87;1739873;81;21449;-77
2021/06/13 06:36:14;;;;;;;7.85;4.97;;;;;;;13.34;76.22;98240.16;1797236;79;21126;-77
2021/06/13 06:38:41;;;;;;;6.95;4.97;;;;;;;13.50;76.33;98241.55;1765851;81;20842;-77
2021/06/13 06:41:07;;;;;;;9.40;4.45;;;;;;;13.64;75.91;98250.63;1797040;79;21020;-77
2021/06/13 06:43:33;;;;;;;12.07;4.95;;;;;;;13.98;75.63;98237.33;1765219;80;20965;-77
2021/06/13 06:45:59;;;;;;;7.62;4.58;;;;;;;14.05;74.18;98241.30;1797000;79;21017;-77
2021/06/13 06:48:25;;;;;;;6.08;3.72;;;;;;;14.49;74.84;98246.05;1765314;81;21328;-77
2021/06/13 06:50:51;;;;;;;5.70;4.22;;;;;;;15.07;74.56;98242.23;1796961;79;20850;-77
2021/06/13 06:53:17;;;;;;;7.33;4.30;;;;;;;15.43;73.59;98242.30;1765460;80;20894;-77
2021/06/13 06:55:43;;;;;;;6.80;4.37;;;;;;;15.08;70.30;98237.59;1796956;79;21033;-77
2021/06/13 06:58:09;;;;;;;8.90;4.08;;;;;;;15.05;71.46;98235.48;1765388;80;20881;-77
2021/06/13 07:00:35;;;;;;;8.35;4.42;;;;;;;14.98;71.53;98237.80;1796982;79;21485;-77
2021/06/13 07:03:01;;;;;;;7.22;3.60;;;;;;;14.75;71.20;98241.75;1765257;81;20858;-77
2021/06/13 07:05:27;;;;;;;13.62;5.12;;;;;;;14.74;71.42;98243.42;1796882;79;20857;-77
2021/06/13 07:07:52;;;;;;;8.65;3.83;;;;;;;14.82;71.21;98240.81;1765526;80;20953;-77
2021/06/13 07:10:18;;;;;;;8.00;3.77;;;;;;;14.92;69.97;98243.34;1797027;79;20913;-77
2021/06/13 07:12:44;;;;;;;6.65;3.47;;;;;;;14.75;69.17;98252.67;1765160;80;21903;-77
2021/06/13 07:15:12;;;;;;;5.05;3.05;;;;;;;14.84;67.63;98259.59;1785441;79;20873;-77
2021/06/13 07:17:38;;;;;;;13.98;3.90;;;;;;;15.04;67.60;98258.39;1765374;81;21100;-77
2021/06/13 07:20:06;;;;;;;6.53;3.27;;;;;;;15.23;66.94;98266.75;1780884;80;21016;-77
2021/06/13 07:22:32;;;;;;;11.10;3.72;;;;;;;15.24;67.16;98265.64;1765469;80;21425;-77
2021/06/13 07:24:59;;;;;;;6.97;3.75;;;;;;;15.10;67.02;98266.73;1796683;79;22041;-77
2021/06/13 07:27:27;;;;;;;6.45;3.33;;;;;;;14.95;65.23;98270.56;1765345;80;20897;-77
2021/06/13 07:29:53;;;;;;;8.45;3.47;;;;;;;14.94;67.13;98274.41;1796595;79;21276;-77
2021/06/13 07:32:19;;;;;;;8.25;3.80;;;;;;;15.00;67.75;98276.50;1764850;80;21001;-77
2021/06/13 07:34:45;;;;;;;7.35;3.35;;;;;;;15.14;68.12;98274.59;1759260;80;21071;-77
2021/06/13 07:37:12;;;;;;;6.33;3.45;;;;;;;15.26;67.53;98278.97;1788183;79;21152;-77
2021/06/13 07:39:38;;;;;;;5.15;2.75;;;;;;;15.65;67.42;98281.77;1747767;81;21481;-77
2021/06/13 07:42:05;;;;;;;8.08;3.30;;;;;;;16.40;65.80;98283.02;1787605;80;21005;-77
2021/06/13 07:44:31;;;;;;;6.75;3.20;;;;;;;16.80;63.68;98268.34;1787657;80;20981;-77
2021/06/13 07:46:57;;;;;;;7.20;3.37;;;;;;;16.86;63.09;98284.88;1787991;80;20917;-77
2021/06/13 07:49:23;;;;;;;6.92;2.98;;;;;;;17.47;62.99;98275.53;1784656;80;21448;-77
2021/06/13 07:51:49;;;;;;;8.30;4.00;;;;;;;17.16;61.46;98290.64;1787816;80;21523;-77
2021/06/13 07:54:15;;;;;;;4.58;2.92;;;;;;;16.74;60.62;98298.32;1787678;80;20936;-77
2021/06/13 07:56:42;;;;;;;8.25;3.70;;;;;;;16.33;59.73;98296.59;1788146;80;21012;-77
2021/06/13 07:59:07;;;;;;;5.85;2.70;;;;;;;16.20;61.49;98297.44;1758816;80;20905;-77
2021/06/13 08:01:34;;;;;;;6.55;3.37;;;;;;;15.89;60.37;98308.25;1765069;81;21146;-77
2021/06/13 08:04:00;;;;;;;9.95;3.80;;;;;;;15.91;61.41;98312.07;1787987;80;20989;-77
2021/06/13 08:06:25;;;;;;;8.18;3.42;;;;;;;15.94;59.39;98307.34;1765167;81;20897;-77
2021/06/13 08:08:51;;;;;;;10.72;7.25;;;;;;;15.94;59.71;98310.88;1787819;80;20905;-77
2021/06/13 08:11:17;;;;;;;5.28;2.95;;;;;;;15.90;60.23;98315.92;1787963;80;21619;-77
2021/06/13 08:13:43;;;;;;;9.28;5.40;;;;;;;16.69;59.30;98315.45;1765093;80;21313;-77
2021/06/13 08:16:09;;;;;;;5.53;3.08;;;;;;;17.31;56.14;98313.50;1759107;80;21072;-77
2021/06/13 08:18:36;;;;;;;6.72;3.20;;;;;;;17.71;57.67;98314.88;1764859;80;20909;-77
2021/06/13 08:21:02;;;;;;;7.22;2.60;;;;;;;17.84;55.81;98315.85;1787998;80;21056;-77
2021/06/13 08:23:31;;;;;;;6.53;3.17;;;;;;;17.52;56.70;98326.08;1787624;80;21025;-77
2021/06/13 08:25:56;;;;;;;12.20;3.70;;;;;;;17.43;55.06;98321.94;1788108;80;21212;-76
2021/06/13 08:28:22;;;;;;;6.55;3.05;;;;;;;17.21;54.03;98322.00;1787793;80;20985;-76
2021/06/13 08:30:48;;;;;;;6.25;2.92;;;;;;;16.98;53.59;98328.08;1788131;80;20977;-76
2021/06/13 08:33:14;;;;;;;11.08;5.22;;;;;;;17.30;52.46;98321.48;1787894;80;21328;-76
2021/06/13 08:35:41;;;;;;;10.15;3.08;;;;;;;17.20;52.82;98323.94;1788385;80;21005;-76
2021/06/13 08:38:07;;;;;;;8.08;3.30;;;;;;;17.86;53.24;98332.78;1787763;79;20984;-76
2021/06/13 08:40:33;;;;;;;5.37;2.87;;;;;;;17.63;53.52;98338.92;1787508;80;21012;-76
2021/06/13 08:43:00;;;;;;;5.62;2.87;;;;;;;18.87;51.86;98333.69;1787501;80;20968;-76
2021/06/13 08:45:26;;;;;;;8.18;2.60;;;;;;;19.76;49.83;98317.96;1787942;79;21083;-76
2021/06/13 08:47:54;;;;;;;6.05;2.42;;;;;;;20.65;46.50;98324.09;1787789;80;20965;-76
2021/06/13 08:50:21;;;;;;;6.40;2.20;;;;;;;21.58;45.29;98327.53;1787957;80;20982;-76
2021/06/13 08:52:48;;;;;;;5.87;2.58;;;;;;;22.04;44.77;98322.65;1787621;80;20977;-76
2021/06/13 08:55:14;;;;;;;5.80;2.22;;;;;;;22.11;43.71;98323.48;1787911;80;21025;-76
2021/06/13 08:57:40;;;;;;;7.30;3.20;;;;;;;21.55;44.37;98330.18;1784898;80;20973;-76
2021/06/13 09:00:12;;;;;;;6.47;3.05;;;;;;;22.11;43.82;98328.42;1764825;81;20956;-76
2021/06/13 09:02:39;;;;;;;7.05;2.60;;;;;;;21.56;45.47;98333.97;1786917;80;21588;-77
2021/06/13 09:05:07;;;;;;;4.33;2.17;;;;;;;20.27;45.63;98329.98;1784586;80;20969;-77
2021/06/13 09:07:34;;;;;;;7.72;2.55;;;;;;;19.76;45.00;98333.88;1764898;81;20942;-77
2021/06/13 09:10:09;;;;;;;8.58;2.83;;;;;;;18.33;47.44;98339.30;1787631;80;20973;-77
2021/06/13 09:12:36;;;;;;;5.00;2.50;;;;;;;17.59;49.02;98337.92;1787924;79;21009;-76
2021/06/13 09:15:02;;;;;;;8.75;3.58;;;;;;;16.86;51.22;98354.67;1787507;80;21304;-76
2021/06/13 09:17:29;;;;;;;7.08;2.90;;;;;;;16.40;52.90;98350.02;1747688;81;21394;-76
2021/06/13 09:20:25;;;;;;;5.37;2.75;;;;;;;16.60;52.10;98352.29;1787810;80;20913;-77
2021/06/13 09:23:17;;;;;;;5.20;3.17;;;;;;;16.70;51.29;98358.09;1762272;80;20965;-76
2021/06/13 09:25:43;;;;;;;4.55;2.60;;;;;;;18.93;48.27;98354.13;1765060;81;20953;-76
2021/06/13 09:28:18;;;;;;;6.92;3.12;;;;;;;21.02;42.92;98351.17;1787612;80;21905;-76
2021/06/13 09:30:47;;;;;;;6.03;2.60;;;;;;;22.51;40.25;98351.91;1759645;79;20965;-76
2021/06/13 09:33:31;;;;;;;5.90;2.33;;;;;;;23.88;39.28;98349.64;1767681;80;20970;-76
2021/06/13 09:35:59;;;;;;;3.60;1.70;;;;;;;25.14;36.54;98342.05;1799388;79;20970;-76
2021/06/13 09:38:28;;;;;;;6.75;2.25;;;;;;;25.22;36.54;98338.23;1768160;80;21031;-76
2021/06/13 09:41:05;;;;;;;5.22;2.35;;;;;;;24.30;34.49;98344.05;1799673;79;21333;-76
2021/06/13 09:43:34;;;;;;;4.17;2.33;;;;;;;22.24;38.91;98358.19;1767789;80;20965;-76
2021/06/13 09:46:02;;;;;;;;;;;;;;;20.42;41.00;98364.32;1775059;79;21461;-76
2021/06/13 09:48:28;;;;;;;5.25;2.25;;;;;;;20.91;40.45;98361.82;1799271;79;20242;-76
2021/06/13 09:51:04;;;;;;;4.58;2.00;;;;;;;20.83;41.25;98353.06;1799306;79;21027;-76
2021/06/13 09:53:36;;;;;;;6.20;2.35;;;;;;;23.34;38.55;98348.88;1767840;80;20985;-76
2021/06/13 09:56:13;;;;;;;5.28;2.12;;;;;;;24.38;36.96;98341.11;1798535;79;21405;-77
2021/06/13 09:59:02;;;;;;;5.40;3.10;;;;;;;24.19;34.29;98346.59;1782664;80;21414;-76
2021/06/13 10:01:37;;;;;;;;;;;;;;;22.95;36.84;98348.41;1770745;81;20937;-76
2021/06/13 10:04:04;;;;;;;8.43;2.22;;;;;;;22.02;39.23;98369.11;1798425;79;20143;-76
2021/06/13 10:06:36;;;;;;;7.35;2.27;;;;;;;21.96;38.22;98367.72;1768216;81;21422;-76
2021/06/13 10:09:05;;;;;;;6.67;3.52;;;;;;;21.58;38.33;98357.85;1799128;79;21489;-76
2021/06/13 10:11:31;;;;;;;5.78;2.35;;;;;;;21.91;37.49;98367.39;1768760;80;20989;-77
2021/06/13 10:14:00;;;;;;;4.10;2.22;;;;;;;20.08;39.16;98380.53;1799279;79;20902;-77
2021/06/13 10:16:32;;;;;;;6.22;2.80;;;;;;;19.27;41.24;98381.50;1768528;81;21047;-76
2021/06/13 10:19:09;;;;;;;5.12;2.20;;;;;;;18.23;41.04;98380.20;1799332;79;21775;-76
2021/06/13 10:21:42;;;;;;;4.80;2.25;;;;;;;17.40;43.18;98380.64;1768190;81;20993;-76
2021/06/13 10:24:11;;;;;;;7.33;3.15;;;;;;;17.84;44.13;98387.92;1798692;79;20997;-76
2021/06/13 10:26:41;;;;;;;5.70;2.62;;;;;;;18.58;43.48;98402.16;1778572;80;21397;-76
2021/06/13 10:29:07;;;;;;;3.47;2.00;;;;;;;19.29;42.23;98398.45;1799274;79;21354;-76
2021/06/13 10:31:33;;;;;;;5.47;2.35;;;;;;;20.03;41.53;98384.84;1751837;81;21278;-76
2021/06/13 10:33:59;;;;;;;6.05;2.00;;;;;;;19.84;41.24;98388.59;1758794;80;20986;-76
2021/06/13 10:36:27;;;;;;;5.50;2.30;;;;;;;19.40;42.22;98388.75;1788016;80;21547;-76
2021/06/13 10:38:53;;;;;;;5.00;2.10;;;;;;;18.45;43.42;98385.28;1784760;80;20950;-76
2021/06/13 10:41:19;;;;;;;8.25;2.30;;;;;;;18.11;44.95;98388.79;1788071;80;21468;-76
2021/06/13 10:43:45;;;;;;;7.03;2.50;;;;;;;17.40;45.17;98392.41;1747591;81;21461;-76
2021/06/13 10:46:17;;;;;;;8.65;3.10;;;;;;;16.90;46.83;98393.16;1787887;80;21481;-77
2021/06/13 10:48:50;;;;;;;5.95;2.83;;;;;;;17.24;46.47;98401.34;1787809;80;21365;-77
2021/06/13 10:51:38;;;;;;;4.83;2.67;;;;;;;17.70;46.01;98400.39;1787901;80;20966;-76
2021/06/13 10:54:26;;;;;;;5.00;2.30;;;;;;;19.10;43.79;98413.94;1765197;80;21020;-76
2021/06/13 10:56:57;;;;;;;6.17;3.08;;;;;;;21.11;40.48;98405.64;1788171;80;21154;-76
2021/06/13 10:59:23;;;;;;;8.40;2.42;;;;;;;22.93;37.01;98406.80;1739936;80;21013;-77
2021/06/13 11:02:13;;;;;;;8.93;2.80;;;;;;;22.38;37.90;98406.91;1788183;80;21008;-76
2021/06/13 11:05:01;;;;;;;9.73;2.58;;;;;;;20.86;38.83;98403.36;1779619;80;20949;-76
2021/06/13 11:07:36;;;;;;;4.95;2.27;;;;;;;20.22;41.51;98409.15;1764901;80;21080;-76
2021/06/13 11:10:11;;;;;;;7.25;2.80;;;;;;;19.38;41.15;98416.29;1787888;80;21301;-76
2021/06/13 11:12:51;;;;;;;7.12;2.27;;;;;;;18.92;43.08;98414.29;1787814;80;21296;-76
2021/06/13 11:15:35;;;;;;;5.65;2.60;;;;;;;18.53;43.98;98413.28;1765105;80;20954;-76
2021/06/13 11:18:16;;;;;;;6.15;2.55;;;;;;;18.47;44.74;98411.85;1787822;80;20974;-77
2021/06/13 11:20:54;;;;;;;7.10;2.87;;;;;;;17.75;44.54;98412.56;1788030;79;20974;-76
2021/06/13 11:23:28;;;;;;;3.72;1.95;;;;;;;18.64;41.65;98411.05;1787629;80;21917;-77
2021/06/13 11:25:59;;;;;;;5.10;2.45;;;;;;;18.54;42.79;98408.87;1787917;80;20997;-76
2021/06/13 11:28:33;;;;;;;3.55;2.20;;;;;;;18.41;42.43;98400.22;1758960;80;21016;-76
2021/06/13 11:31:13;;;;;;;5.33;2.05;;;;;;;18.09;42.45;98404.77;1784140;80;21021;-76
2021/06/13 11:33:57;;;;;;;7.15;2.33;;;;;;;17.42;43.17;98411.26;1783046;80;20965;-76
2021/06/13 11:36:28;;;;;;;4.33;2.55;;;;;;;17.26;44.19;98405.41;1787885;80;22084;-76
2021/06/13 11:39:06;;;;;;;8.18;2.72;;;;;;;17.27;44.61;98404.84;1787641;80;20902;-77
2021/06/13 11:41:35;;;;;;;6.03;2.72;;;;;;;17.20;46.68;98407.45;1788150;80;21040;-76
2021/06/13 11:44:07;;;;;;;5.72;2.37;;;;;;;17.54;45.07;98410.13;1787763;79;20930;-76